sensor_id;sensor_type;location;lat;lon;timestamp;P1;durP1;ratioP1;P2;durP2;ratioP2
5787;SDS011;2920;48.158;12.254;2023-08-06T00:01:10;3.95;;;3.10;;
5787;SDS011;2920;48.158;12.254;2023-08-06T00:03:35;5.97;;;3.45;;
5787;SDS011;2920;48.158;12.254;2023-08-06T00:06:01;4.18;;;3.47;;
5787;SDS011;2920;48.158;12.254;2023-08-06T00:08:26;4.25;;;3.33;;
5787;SDS011;2920;48.158;12.254;2023-08-06T00:10:52;7.45;;;4.00;;
5787;SDS011;2920;48.158;12.254;2023-08-06T00:13:17;6.55;;;3.53;;
5787;SDS011;2920;48.158;12.254;2023-08-06T00:15:43;4.70;;;3.50;;
5787;SDS011;2920;48.158;12.254;2023-08-06T00:18:08;4.70;;;3.65;;
5787;SDS011;2920;48.158;12.254;2023-08-06T00:20:33;6.65;;;3.05;;
5787;SDS011;2920;48.158;12.254;2023-08-06T00:22:59;5.15;;;3.33;;
5787;SDS011;2920;48.158;12.254;2023-08-06T00:25:24;5.60;;;3.67;;
5787;SDS011;2920;48.158;12.254;2023-08-06T00:27:49;7.00;;;3.30;;
5787;SDS011;2920;48.158;12.254;2023-08-06T00:30:14;5.88;;;3.72;;
5787;SDS011;2920;48.158;12.254;2023-08-06T00:32:40;4.70;;;3.40;;
5787;SDS011;2920;48.158;12.254;2023-08-06T00:35:05;5.63;;;3.35;;
5787;SDS011;2920;48.158;12.254;2023-08-06T00:37:31;6.88;;;4.30;;
5787;SDS011;2920;48.158;12.254;2023-08-06T00:39:56;5.40;;;4.18;;
5787;SDS011;2920;48.158;12.254;2023-08-06T00:42:21;5.13;;;4.05;;
5787;SDS011;2920;48.158;12.254;2023-08-06T00:44:47;6.78;;;4.13;;
5787;SDS011;2920;48.158;12.254;2023-08-06T00:47:13;4.55;;;3.47;;
5787;SDS011;2920;48.158;12.254;2023-08-06T00:49:38;10.52;;;4.93;;
5787;SDS011;2920;48.158;12.254;2023-08-06T00:52:04;7.32;;;4.10;;
5787;SDS011;2920;48.158;12.254;2023-08-06T00:54:30;5.30;;;4.05;;
5787;SDS011;2920;48.158;12.254;2023-08-06T00:56:56;7.32;;;4.13;;
5787;SDS011;2920;48.158;12.254;2023-08-06T00:59:22;7.15;;;3.70;;
5787;SDS011;2920;48.158;12.254;2023-08-06T01:01:48;5.60;;;3.20;;
5787;SDS011;2920;48.158;12.254;2023-08-06T01:04:15;6.75;;;4.35;;
5787;SDS011;2920;48.158;12.254;2023-08-06T01:06:45;5.47;;;3.58;;
5787;SDS011;2920;48.158;12.254;2023-08-06T01:12:54;7.38;;;4.15;;
5787;SDS011;2920;48.158;12.254;2023-08-06T01:15:14;8.27;;;4.05;;
5787;SDS011;2920;48.158;12.254;2023-08-06T01:17:41;10.20;;;4.80;;
5787;SDS011;2920;48.158;12.254;2023-08-06T01:20:07;6.38;;;4.13;;
5787;SDS011;2920;48.158;12.254;2023-08-06T01:22:33;6.97;;;4.05;;
5787;SDS011;2920;48.158;12.254;2023-08-06T01:24:58;6.93;;;4.13;;
5787;SDS011;2920;48.158;12.254;2023-08-06T01:27:26;7.75;;;4.35;;
5787;SDS011;2920;48.158;12.254;2023-08-06T01:30:17;6.75;;;4.78;;
5787;SDS011;2920;48.158;12.254;2023-08-06T01:32:46;6.38;;;4.13;;
5787;SDS011;2920;48.158;12.254;2023-08-06T01:35:15;6.78;;;3.83;;
5787;SDS011;2920;48.158;12.254;2023-08-06T01:37:41;7.88;;;4.57;;
5787;SDS011;2920;48.158;12.254;2023-08-06T01:40:10;10.05;;;4.35;;
5787;SDS011;2920;48.158;12.254;2023-08-06T01:42:39;6.38;;;4.60;;
5787;SDS011;2920;48.158;12.254;2023-08-06T01:45:05;6.38;;;4.22;;
5787;SDS011;2920;48.158;12.254;2023-08-06T01:47:32;7.30;;;4.50;;
5787;SDS011;2920;48.158;12.254;2023-08-06T01:49:57;5.93;;;3.75;;
5787;SDS011;2920;48.158;12.254;2023-08-06T01:52:23;5.32;;;3.72;;
5787;SDS011;2920;48.158;12.254;2023-08-06T01:54:48;7.57;;;4.35;;
5787;SDS011;2920;48.158;12.254;2023-08-06T01:57:13;6.22;;;4.68;;
5787;SDS011;2920;48.158;12.254;2023-08-06T01:59:39;9.77;;;4.60;;
5787;SDS011;2920;48.158;12.254;2023-08-06T02:02:04;6.90;;;4.60;;
5787;SDS011;2920;48.158;12.254;2023-08-06T02:04:29;6.80;;;4.05;;
5787;SDS011;2920;48.158;12.254;2023-08-06T02:06:55;7.35;;;4.18;;
5787;SDS011;2920;48.158;12.254;2023-08-06T02:09:20;5.35;;;4.43;;
5787;SDS011;2920;48.158;12.254;2023-08-06T02:11:45;7.05;;;4.50;;
5787;SDS011;2920;48.158;12.254;2023-08-06T02:14:10;5.03;;;3.70;;
5787;SDS011;2920;48.158;12.254;2023-08-06T02:16:36;7.30;;;4.20;;
5787;SDS011;2920;48.158;12.254;2023-08-06T02:19:02;6.93;;;3.67;;
5787;SDS011;2920;48.158;12.254;2023-08-06T02:21:27;6.82;;;3.92;;
5787;SDS011;2920;48.158;12.254;2023-08-06T02:23:52;7.05;;;4.25;;
5787;SDS011;2920;48.158;12.254;2023-08-06T02:26:18;6.43;;;4.60;;
5787;SDS011;2920;48.158;12.254;2023-08-06T02:28:43;6.75;;;4.53;;
5787;SDS011;2920;48.158;12.254;2023-08-06T02:31:08;6.85;;;3.97;;
5787;SDS011;2920;48.158;12.254;2023-08-06T02:33:34;6.50;;;4.20;;
5787;SDS011;2920;48.158;12.254;2023-08-06T02:35:59;5.50;;;3.92;;
5787;SDS011;2920;48.158;12.254;2023-08-06T02:38:26;8.05;;;3.85;;
5787;SDS011;2920;48.158;12.254;2023-08-06T02:40:51;5.25;;;3.63;;
5787;SDS011;2920;48.158;12.254;2023-08-06T02:43:16;10.50;;;4.25;;
5787;SDS011;2920;48.158;12.254;2023-08-06T02:45:42;5.22;;;3.47;;
5787;SDS011;2920;48.158;12.254;2023-08-06T02:48:07;6.47;;;3.88;;
5787;SDS011;2920;48.158;12.254;2023-08-06T02:50:41;7.70;;;3.75;;
5787;SDS011;2920;48.158;12.254;2023-08-06T02:53:07;4.63;;;3.67;;
5787;SDS011;2920;48.158;12.254;2023-08-06T02:55:33;5.78;;;3.70;;
5787;SDS011;2920;48.158;12.254;2023-08-06T02:57:59;4.57;;;3.60;;
5787;SDS011;2920;48.158;12.254;2023-08-06T03:00:25;6.82;;;3.90;;
5787;SDS011;2920;48.158;12.254;2023-08-06T03:02:51;6.72;;;3.65;;
5787;SDS011;2920;48.158;12.254;2023-08-06T03:05:16;5.88;;;3.42;;
5787;SDS011;2920;48.158;12.254;2023-08-06T03:07:41;5.22;;;3.67;;
5787;SDS011;2920;48.158;12.254;2023-08-06T03:10:07;5.72;;;3.60;;
5787;SDS011;2920;48.158;12.254;2023-08-06T03:12:32;4.93;;;3.60;;
5787;SDS011;2920;48.158;12.254;2023-08-06T03:14:58;4.40;;;3.47;;
5787;SDS011;2920;48.158;12.254;2023-08-06T03:17:23;5.32;;;3.92;;
5787;SDS011;2920;48.158;12.254;2023-08-06T03:19:48;5.35;;;3.80;;
5787;SDS011;2920;48.158;12.254;2023-08-06T03:22:13;6.50;;;3.35;;
5787;SDS011;2920;48.158;12.254;2023-08-06T03:24:39;5.22;;;4.00;;
5787;SDS011;2920;48.158;12.254;2023-08-06T03:27:04;5.32;;;4.07;;
5787;SDS011;2920;48.158;12.254;2023-08-06T03:29:30;5.70;;;3.50;;
5787;SDS011;2920;48.158;12.254;2023-08-06T03:31:55;5.45;;;4.03;;
5787;SDS011;2920;48.158;12.254;2023-08-06T03:34:20;7.63;;;3.72;;
5787;SDS011;2920;48.158;12.254;2023-08-06T03:36:46;5.18;;;3.85;;
5787;SDS011;2920;48.158;12.254;2023-08-06T03:39:11;5.63;;;4.03;;
5787;SDS011;2920;48.158;12.254;2023-08-06T03:41:36;8.85;;;3.75;;
5787;SDS011;2920;48.158;12.254;2023-08-06T03:44:02;5.22;;;3.25;;
5787;SDS011;2920;48.158;12.254;2023-08-06T03:46:28;4.63;;;3.30;;
5787;SDS011;2920;48.158;12.254;2023-08-06T03:48:54;4.82;;;3.50;;
5787;SDS011;2920;48.158;12.254;2023-08-06T03:51:19;5.05;;;3.47;;
5787;SDS011;2920;48.158;12.254;2023-08-06T03:53:44;5.30;;;3.65;;
5787;SDS011;2920;48.158;12.254;2023-08-06T03:56:10;5.50;;;3.90;;
5787;SDS011;2920;48.158;12.254;2023-08-06T03:58:35;5.53;;;3.88;;
5787;SDS011;2920;48.158;12.254;2023-08-06T04:01:01;6.53;;;4.40;;
5787;SDS011;2920;48.158;12.254;2023-08-06T04:03:27;5.20;;;3.65;;
5787;SDS011;2920;48.158;12.254;2023-08-06T04:05:53;5.57;;;3.83;;
5787;SDS011;2920;48.158;12.254;2023-08-06T04:08:19;5.47;;;3.53;;
5787;SDS011;2920;48.158;12.254;2023-08-06T04:10:44;5.38;;;3.85;;
5787;SDS011;2920;48.158;12.254;2023-08-06T04:13:09;6.10;;;3.80;;
5787;SDS011;2920;48.158;12.254;2023-08-06T04:15:34;5.57;;;3.58;;
5787;SDS011;2920;48.158;12.254;2023-08-06T04:18:00;6.95;;;3.90;;
5787;SDS011;2920;48.158;12.254;2023-08-06T04:20:25;4.80;;;3.47;;
5787;SDS011;2920;48.158;12.254;2023-08-06T04:22:50;5.22;;;3.45;;
5787;SDS011;2920;48.158;12.254;2023-08-06T04:25:16;4.45;;;3.33;;
5787;SDS011;2920;48.158;12.254;2023-08-06T04:27:46;4.18;;;3.17;;
5787;SDS011;2920;48.158;12.254;2023-08-06T04:30:11;7.38;;;3.00;;
5787;SDS011;2920;48.158;12.254;2023-08-06T04:32:37;5.25;;;3.17;;
5787;SDS011;2920;48.158;12.254;2023-08-06T04:35:03;4.57;;;3.30;;
5787;SDS011;2920;48.158;12.254;2023-08-06T04:37:28;3.95;;;3.03;;
5787;SDS011;2920;48.158;12.254;2023-08-06T04:39:53;3.70;;;2.65;;
5787;SDS011;2920;48.158;12.254;2023-08-06T04:42:19;4.50;;;2.55;;
5787;SDS011;2920;48.158;12.254;2023-08-06T04:44:44;4.20;;;2.80;;
5787;SDS011;2920;48.158;12.254;2023-08-06T04:47:09;4.60;;;3.33;;
5787;SDS011;2920;48.158;12.254;2023-08-06T04:49:34;4.25;;;2.75;;
5787;SDS011;2920;48.158;12.254;2023-08-06T04:52:00;3.45;;;2.75;;
5787;SDS011;2920;48.158;12.254;2023-08-06T04:54:25;4.25;;;2.95;;
5787;SDS011;2920;48.158;12.254;2023-08-06T04:56:50;3.22;;;2.72;;
5787;SDS011;2920;48.158;12.254;2023-08-06T04:59:16;4.05;;;2.50;;
5787;SDS011;2920;48.158;12.254;2023-08-06T05:01:41;2.78;;;2.08;;
5787;SDS011;2920;48.158;12.254;2023-08-06T05:04:06;4.32;;;2.88;;
5787;SDS011;2920;48.158;12.254;2023-08-06T05:06:32;4.07;;;2.90;;
5787;SDS011;2920;48.158;12.254;2023-08-06T05:08:57;3.10;;;2.42;;
5787;SDS011;2920;48.158;12.254;2023-08-06T05:11:22;3.83;;;2.60;;
5787;SDS011;2920;48.158;12.254;2023-08-06T05:13:49;3.90;;;2.67;;
5787;SDS011;2920;48.158;12.254;2023-08-06T05:16:14;2.97;;;2.47;;
5787;SDS011;2920;48.158;12.254;2023-08-06T05:18:39;3.00;;;2.28;;
5787;SDS011;2920;48.158;12.254;2023-08-06T05:21:05;3.42;;;2.50;;
5787;SDS011;2920;48.158;12.254;2023-08-06T05:23:31;2.90;;;2.60;;
5787;SDS011;2920;48.158;12.254;2023-08-06T05:25:56;3.42;;;2.80;;
5787;SDS011;2920;48.158;12.254;2023-08-06T05:28:21;3.78;;;2.78;;
5787;SDS011;2920;48.158;12.254;2023-08-06T05:30:47;4.57;;;3.03;;
5787;SDS011;2920;48.158;12.254;2023-08-06T05:33:12;4.00;;;3.00;;
5787;SDS011;2920;48.158;12.254;2023-08-06T05:35:37;3.47;;;2.75;;
5787;SDS011;2920;48.158;12.254;2023-08-06T05:38:03;5.38;;;3.10;;
5787;SDS011;2920;48.158;12.254;2023-08-06T05:40:28;3.03;;;2.38;;
5787;SDS011;2920;48.158;12.254;2023-08-06T05:42:54;4.63;;;2.75;;
5787;SDS011;2920;48.158;12.254;2023-08-06T05:45:19;2.70;;;2.22;;
5787;SDS011;2920;48.158;12.254;2023-08-06T05:47:45;3.28;;;2.30;;
5787;SDS011;2920;48.158;12.254;2023-08-06T05:50:10;6.10;;;2.55;;
5787;SDS011;2920;48.158;12.254;2023-08-06T05:52:36;4.95;;;2.40;;
5787;SDS011;2920;48.158;12.254;2023-08-06T05:55:01;3.67;;;2.45;;
5787;SDS011;2920;48.158;12.254;2023-08-06T05:57:26;4.57;;;2.20;;
5787;SDS011;2920;48.158;12.254;2023-08-06T05:59:52;3.30;;;2.33;;
5787;SDS011;2920;48.158;12.254;2023-08-06T06:02:17;3.55;;;2.35;;
5787;SDS011;2920;48.158;12.254;2023-08-06T06:04:43;3.67;;;2.22;;
5787;SDS011;2920;48.158;12.254;2023-08-06T06:07:09;3.97;;;2.22;;
5787;SDS011;2920;48.158;12.254;2023-08-06T06:09:34;4.63;;;2.33;;
5787;SDS011;2920;48.158;12.254;2023-08-06T06:11:59;6.80;;;2.42;;
5787;SDS011;2920;48.158;12.254;2023-08-06T06:14:25;3.38;;;2.15;;
5787;SDS011;2920;48.158;12.254;2023-08-06T06:16:50;6.78;;;2.30;;
5787;SDS011;2920;48.158;12.254;2023-08-06T06:19:15;2.85;;;2.00;;
5787;SDS011;2920;48.158;12.254;2023-08-06T06:21:41;3.55;;;2.08;;
5787;SDS011;2920;48.158;12.254;2023-08-06T06:24:06;3.58;;;2.13;;
5787;SDS011;2920;48.158;12.254;2023-08-06T06:26:33;3.65;;;2.10;;
5787;SDS011;2920;48.158;12.254;2023-08-06T06:28:58;2.80;;;1.90;;
5787;SDS011;2920;48.158;12.254;2023-08-06T06:31:23;3.78;;;2.05;;
5787;SDS011;2920;48.158;12.254;2023-08-06T06:33:49;3.30;;;2.20;;
5787;SDS011;2920;48.158;12.254;2023-08-06T06:36:14;3.30;;;2.30;;
5787;SDS011;2920;48.158;12.254;2023-08-06T06:38:39;2.83;;;2.05;;
5787;SDS011;2920;48.158;12.254;2023-08-06T06:41:04;2.20;;;1.77;;
5787;SDS011;2920;48.158;12.254;2023-08-06T06:43:30;2.05;;;1.83;;
5787;SDS011;2920;48.158;12.254;2023-08-06T06:45:56;4.50;;;2.20;;
5787;SDS011;2920;48.158;12.254;2023-08-06T06:48:28;2.05;;;1.85;;
5787;SDS011;2920;48.158;12.254;2023-08-06T06:50:55;3.38;;;1.88;;
5787;SDS011;2920;48.158;12.254;2023-08-06T06:53:20;4.43;;;1.80;;
5787;SDS011;2920;48.158;12.254;2023-08-06T06:55:48;2.08;;;1.50;;
5787;SDS011;2920;48.158;12.254;2023-08-06T06:58:14;3.58;;;1.95;;
5787;SDS011;2920;48.158;12.254;2023-08-06T07:00:40;3.47;;;1.85;;
5787;SDS011;2920;48.158;12.254;2023-08-06T07:03:06;3.15;;;1.95;;
5787;SDS011;2920;48.158;12.254;2023-08-06T07:05:31;3.25;;;2.00;;
5787;SDS011;2920;48.158;12.254;2023-08-06T07:07:57;2.80;;;1.75;;
5787;SDS011;2920;48.158;12.254;2023-08-06T07:10:22;2.28;;;1.55;;
5787;SDS011;2920;48.158;12.254;2023-08-06T07:12:48;3.45;;;1.95;;
5787;SDS011;2920;48.158;12.254;2023-08-06T07:15:13;3.00;;;1.88;;
5787;SDS011;2920;48.158;12.254;2023-08-06T07:17:38;3.30;;;1.70;;
5787;SDS011;2920;48.158;12.254;2023-08-06T07:20:04;2.90;;;2.10;;
5787;SDS011;2920;48.158;12.254;2023-08-06T07:22:31;3.40;;;1.60;;
5787;SDS011;2920;48.158;12.254;2023-08-06T07:24:56;2.28;;;1.73;;
5787;SDS011;2920;48.158;12.254;2023-08-06T07:27:21;2.92;;;1.60;;
5787;SDS011;2920;48.158;12.254;2023-08-06T07:29:47;3.38;;;1.92;;
5787;SDS011;2920;48.158;12.254;2023-08-06T07:32:13;4.85;;;1.65;;
5787;SDS011;2920;48.158;12.254;2023-08-06T07:34:38;2.50;;;1.70;;
5787;SDS011;2920;48.158;12.254;2023-08-06T07:37:04;3.17;;;1.50;;
5787;SDS011;2920;48.158;12.254;2023-08-06T07:39:30;2.83;;;1.70;;
5787;SDS011;2920;48.158;12.254;2023-08-06T07:41:56;3.72;;;1.40;;
5787;SDS011;2920;48.158;12.254;2023-08-06T07:44:21;2.30;;;1.63;;
5787;SDS011;2920;48.158;12.254;2023-08-06T07:46:46;4.00;;;1.27;;
5787;SDS011;2920;48.158;12.254;2023-08-06T07:49:12;2.47;;;1.40;;
5787;SDS011;2920;48.158;12.254;2023-08-06T08:04:42;1.70;;;1.30;;
5787;SDS011;2920;48.158;12.254;2023-08-06T08:07:09;2.47;;;1.63;;
5787;SDS011;2920;48.158;12.254;2023-08-06T08:09:34;2.72;;;1.23;;
5787;SDS011;2920;48.158;12.254;2023-08-06T08:12:00;1.88;;;1.38;;
5787;SDS011;2920;48.158;12.254;2023-08-06T08:14:27;3.20;;;1.33;;
5787;SDS011;2920;48.158;12.254;2023-08-06T08:16:53;2.47;;;1.40;;
5787;SDS011;2920;48.158;12.254;2023-08-06T08:19:19;1.77;;;1.10;;
5787;SDS011;2920;48.158;12.254;2023-08-06T08:21:45;1.65;;;1.00;;
5787;SDS011;2920;48.158;12.254;2023-08-06T08:24:10;2.75;;;1.10;;
5787;SDS011;2920;48.158;12.254;2023-08-06T08:26:35;1.42;;;1.00;;
5787;SDS011;2920;48.158;12.254;2023-08-06T08:29:01;0.90;;;0.85;;
5787;SDS011;2920;48.158;12.254;2023-08-06T08:31:26;3.08;;;0.90;;
5787;SDS011;2920;48.158;12.254;2023-08-06T08:33:51;1.55;;;0.88;;
5787;SDS011;2920;48.158;12.254;2023-08-06T08:36:18;3.92;;;0.75;;
5787;SDS011;2920;48.158;12.254;2023-08-06T08:38:43;3.63;;;0.70;;
5787;SDS011;2920;48.158;12.254;2023-08-06T08:41:09;1.40;;;0.80;;
5787;SDS011;2920;48.158;12.254;2023-08-06T08:43:35;1.88;;;0.80;;
5787;SDS011;2920;48.158;12.254;2023-08-06T08:46:00;1.35;;;0.55;;
5787;SDS011;2920;48.158;12.254;2023-08-06T08:48:27;2.25;;;0.50;;
5787;SDS011;2920;48.158;12.254;2023-08-06T08:50:52;1.02;;;0.70;;
5787;SDS011;2920;48.158;12.254;2023-08-06T08:53:18;0.90;;;0.75;;
5787;SDS011;2920;48.158;12.254;2023-08-06T08:55:46;1.58;;;0.70;;
5787;SDS011;2920;48.158;12.254;2023-08-06T08:58:12;1.50;;;0.90;;
5787;SDS011;2920;48.158;12.254;2023-08-06T09:00:38;0.80;;;0.63;;
5787;SDS011;2920;48.158;12.254;2023-08-06T09:03:05;1.77;;;0.70;;
5787;SDS011;2920;48.158;12.254;2023-08-06T09:05:31;2.72;;;0.80;;
5787;SDS011;2920;48.158;12.254;2023-08-06T09:08:00;1.42;;;0.75;;
5787;SDS011;2920;48.158;12.254;2023-08-06T09:10:27;1.10;;;0.80;;
5787;SDS011;2920;48.158;12.254;2023-08-06T09:12:53;0.80;;;0.73;;
5787;SDS011;2920;48.158;12.254;2023-08-06T09:15:19;2.55;;;1.00;;
5787;SDS011;2920;48.158;12.254;2023-08-06T09:17:45;1.88;;;0.77;;
5787;SDS011;2920;48.158;12.254;2023-08-06T09:20:11;1.33;;;0.85;;
5787;SDS011;2920;48.158;12.254;2023-08-06T09:22:37;2.28;;;0.90;;
5787;SDS011;2920;48.158;12.254;2023-08-06T09:25:03;3.55;;;1.00;;
5787;SDS011;2920;48.158;12.254;2023-08-06T09:27:31;1.98;;;0.63;;
5787;SDS011;2920;48.158;12.254;2023-08-06T09:29:56;2.15;;;0.70;;
5787;SDS011;2920;48.158;12.254;2023-08-06T09:32:21;2.22;;;0.90;;
5787;SDS011;2920;48.158;12.254;2023-08-06T09:34:46;1.30;;;0.80;;
5787;SDS011;2920;48.158;12.254;2023-08-06T09:37:12;1.05;;;0.80;;
5787;SDS011;2920;48.158;12.254;2023-08-06T09:39:40;0.88;;;0.77;;
5787;SDS011;2920;48.158;12.254;2023-08-06T09:42:06;2.53;;;0.63;;
5787;SDS011;2920;48.158;12.254;2023-08-06T09:44:32;3.50;;;0.70;;
5787;SDS011;2920;48.158;12.254;2023-08-06T09:46:59;1.20;;;0.60;;
5787;SDS011;2920;48.158;12.254;2023-08-06T09:49:28;1.92;;;0.43;;
5787;SDS011;2920;48.158;12.254;2023-08-06T09:52:10;2.90;;;0.85;;
5787;SDS011;2920;48.158;12.254;2023-08-06T09:54:37;1.17;;;0.82;;
5787;SDS011;2920;48.158;12.254;2023-08-06T09:57:03;1.02;;;0.50;;
5787;SDS011;2920;48.158;12.254;2023-08-06T09:59:28;1.98;;;0.60;;
5787;SDS011;2920;48.158;12.254;2023-08-06T10:01:54;0.70;;;0.40;;
5787;SDS011;2920;48.158;12.254;2023-08-06T10:04:20;2.13;;;0.60;;
5787;SDS011;2920;48.158;12.254;2023-08-06T10:06:46;0.80;;;0.43;;
5787;SDS011;2920;48.158;12.254;2023-08-06T10:09:15;0.30;;;0.30;;
5787;SDS011;2920;48.158;12.254;2023-08-06T10:11:40;0.77;;;0.50;;
5787;SDS011;2920;48.158;12.254;2023-08-06T10:14:11;2.10;;;0.50;;
5787;SDS011;2920;48.158;12.254;2023-08-06T10:16:38;0.57;;;0.30;;
5787;SDS011;2920;48.158;12.254;2023-08-06T10:19:05;0.98;;;0.30;;
5787;SDS011;2920;48.158;12.254;2023-08-06T10:21:32;1.38;;;0.40;;
5787;SDS011;2920;48.158;12.254;2023-08-06T10:23:58;1.00;;;0.40;;
5787;SDS011;2920;48.158;12.254;2023-08-06T10:26:25;2.25;;;0.40;;
5787;SDS011;2920;48.158;12.254;2023-08-06T10:28:51;0.30;;;0.30;;
5787;SDS011;2920;48.158;12.254;2023-08-06T10:31:17;0.40;;;0.35;;
5787;SDS011;2920;48.158;12.254;2023-08-06T10:33:46;0.95;;;0.55;;
5787;SDS011;2920;48.158;12.254;2023-08-06T10:36:13;1.67;;;0.28;;
5787;SDS011;2920;48.158;12.254;2023-08-06T10:38:46;1.55;;;0.32;;
5787;SDS011;2920;48.158;12.254;2023-08-06T10:41:28;0.30;;;0.20;;
5787;SDS011;2920;48.158;12.254;2023-08-06T10:44:06;3.40;;;0.20;;
5787;SDS011;2920;48.158;12.254;2023-08-06T10:46:35;0.85;;;0.32;;
5787;SDS011;2920;48.158;12.254;2023-08-06T10:49:02;1.80;;;0.40;;
5787;SDS011;2920;48.158;12.254;2023-08-06T10:51:28;0.22;;;0.20;;
5787;SDS011;2920;48.158;12.254;2023-08-06T10:53:53;0.38;;;0.30;;
5787;SDS011;2920;48.158;12.254;2023-08-06T10:56:22;1.70;;;0.40;;
5787;SDS011;2920;48.158;12.254;2023-08-06T10:58:49;1.08;;;0.30;;
5787;SDS011;2920;48.158;12.254;2023-08-06T11:01:15;1.33;;;0.15;;
5787;SDS011;2920;48.158;12.254;2023-08-06T11:03:44;0.22;;;0.22;;
5787;SDS011;2920;48.158;12.254;2023-08-06T11:06:10;2.38;;;0.40;;
5787;SDS011;2920;48.158;12.254;2023-08-06T11:08:37;0.47;;;0.30;;
5787;SDS011;2920;48.158;12.254;2023-08-06T11:11:09;0.50;;;0.25;;
5787;SDS011;2920;48.158;12.254;2023-08-06T11:13:36;0.17;;;0.17;;
5787;SDS011;2920;48.158;12.254;2023-08-06T11:16:03;0.45;;;0.43;;
5787;SDS011;2920;48.158;12.254;2023-08-06T11:18:29;0.95;;;0.30;;
5787;SDS011;2920;48.158;12.254;2023-08-06T11:20:54;0.80;;;0.35;;
5787;SDS011;2920;48.158;12.254;2023-08-06T11:23:20;1.08;;;0.38;;
5787;SDS011;2920;48.158;12.254;2023-08-06T11:25:45;1.80;;;0.20;;
5787;SDS011;2920;48.158;12.254;2023-08-06T11:28:11;0.35;;;0.20;;
5787;SDS011;2920;48.158;12.254;2023-08-06T11:30:37;0.93;;;0.30;;
5787;SDS011;2920;48.158;12.254;2023-08-06T11:33:03;0.40;;;0.20;;
5787;SDS011;2920;48.158;12.254;2023-08-06T11:35:28;0.50;;;0.25;;
5787;SDS011;2920;48.158;12.254;2023-08-06T11:37:53;0.90;;;0.32;;
5787;SDS011;2920;48.158;12.254;2023-08-06T11:40:18;0.25;;;0.13;;
5787;SDS011;2920;48.158;12.254;2023-08-06T11:42:46;0.13;;;0.13;;
5787;SDS011;2920;48.158;12.254;2023-08-06T11:45:11;1.48;;;0.30;;
5787;SDS011;2920;48.158;12.254;2023-08-06T11:47:40;0.32;;;0.32;;
5787;SDS011;2920;48.158;12.254;2023-08-06T11:50:06;1.77;;;0.20;;
5787;SDS011;2920;48.158;12.254;2023-08-06T11:52:31;0.65;;;0.25;;
5787;SDS011;2920;48.158;12.254;2023-08-06T11:55:03;0.28;;;0.22;;
5787;SDS011;2920;48.158;12.254;2023-08-06T11:57:35;0.47;;;0.25;;
5787;SDS011;2920;48.158;12.254;2023-08-06T12:00:04;1.63;;;0.15;;
5787;SDS011;2920;48.158;12.254;2023-08-06T12:02:31;2.35;;;0.30;;
5787;SDS011;2920;48.158;12.254;2023-08-06T12:05:18;3.13;;;0.10;;
5787;SDS011;2920;48.158;12.254;2023-08-06T12:10:17;0.30;;;0.15;;
5787;SDS011;2920;48.158;12.254;2023-08-06T12:12:44;0.20;;;0.20;;
5787;SDS011;2920;48.158;12.254;2023-08-06T12:15:10;0.20;;;0.20;;
5787;SDS011;2920;48.158;12.254;2023-08-06T12:17:36;1.83;;;0.25;;
5787;SDS011;2920;48.158;12.254;2023-08-06T12:20:02;0.90;;;0.25;;
5787;SDS011;2920;48.158;12.254;2023-08-06T12:22:29;0.10;;;0.10;;
5787;SDS011;2920;48.158;12.254;2023-08-06T12:24:57;0.10;;;0.10;;
5787;SDS011;2920;48.158;12.254;2023-08-06T12:27:22;0.00;;;0.00;;
5787;SDS011;2920;48.158;12.254;2023-08-06T12:29:48;0.17;;;0.17;;
5787;SDS011;2920;48.158;12.254;2023-08-06T12:32:13;0.10;;;0.10;;
5787;SDS011;2920;48.158;12.254;2023-08-06T12:34:39;0.90;;;0.43;;
5787;SDS011;2920;48.158;12.254;2023-08-06T12:37:06;1.50;;;0.22;;
5787;SDS011;2920;48.158;12.254;2023-08-06T12:39:32;0.45;;;0.20;;
5787;SDS011;2920;48.158;12.254;2023-08-06T12:41:58;0.03;;;0.03;;
5787;SDS011;2920;48.158;12.254;2023-08-06T12:44:26;0.13;;;0.13;;
5787;SDS011;2920;48.158;12.254;2023-08-06T12:46:52;0.00;;;0.00;;
5787;SDS011;2920;48.158;12.254;2023-08-06T12:49:18;0.13;;;0.13;;
5787;SDS011;2920;48.158;12.254;2023-08-06T12:51:45;0.10;;;0.10;;
5787;SDS011;2920;48.158;12.254;2023-08-06T12:54:11;0.00;;;0.00;;
5787;SDS011;2920;48.158;12.254;2023-08-06T12:56:37;0.35;;;0.15;;
5787;SDS011;2920;48.158;12.254;2023-08-06T12:59:02;0.32;;;0.20;;
5787;SDS011;2920;48.158;12.254;2023-08-06T13:01:27;0.10;;;0.10;;
5787;SDS011;2920;48.158;12.254;2023-08-06T13:03:53;0.30;;;0.20;;
5787;SDS011;2920;48.158;12.254;2023-08-06T13:06:18;0.28;;;0.10;;
5787;SDS011;2920;48.158;12.254;2023-08-06T13:08:43;0.20;;;0.20;;
5787;SDS011;2920;48.158;12.254;2023-08-06T13:11:09;0.20;;;0.10;;
5787;SDS011;2920;48.158;12.254;2023-08-06T13:13:34;0.30;;;0.30;;
5787;SDS011;2920;48.158;12.254;2023-08-06T13:15:59;0.10;;;0.10;;
5787;SDS011;2920;48.158;12.254;2023-08-06T13:18:25;0.30;;;0.30;;
5787;SDS011;2920;48.158;12.254;2023-08-06T13:20:52;0.10;;;0.10;;
5787;SDS011;2920;48.158;12.254;2023-08-06T13:23:19;0.13;;;0.13;;
5787;SDS011;2920;48.158;12.254;2023-08-06T13:25:44;0.70;;;0.25;;
5787;SDS011;2920;48.158;12.254;2023-08-06T13:28:10;0.30;;;0.30;;
5787;SDS011;2920;48.158;12.254;2023-08-06T13:30:36;0.60;;;0.10;;
5787;SDS011;2920;48.158;12.254;2023-08-06T13:33:06;3.50;;;0.60;;
5787;SDS011;2920;48.158;12.254;2023-08-06T13:35:32;1.02;;;0.30;;
5787;SDS011;2920;48.158;12.254;2023-08-06T13:37:57;0.10;;;0.10;;
5787;SDS011;2920;48.158;12.254;2023-08-06T13:40:23;0.32;;;0.20;;
5787;SDS011;2920;48.158;12.254;2023-08-06T13:42:48;0.55;;;0.20;;
5787;SDS011;2920;48.158;12.254;2023-08-06T13:45:13;3.00;;;0.30;;
5787;SDS011;2920;48.158;12.254;2023-08-06T13:47:39;0.80;;;0.25;;
5787;SDS011;2920;48.158;12.254;2023-08-06T13:50:04;0.30;;;0.30;;
5787;SDS011;2920;48.158;12.254;2023-08-06T13:52:30;0.08;;;0.08;;
5787;SDS011;2920;48.158;12.254;2023-08-06T13:54:55;0.20;;;0.20;;
5787;SDS011;2920;48.158;12.254;2023-08-06T13:57:21;0.30;;;0.20;;
5787;SDS011;2920;48.158;12.254;2023-08-06T13:59:46;0.28;;;0.28;;
5787;SDS011;2920;48.158;12.254;2023-08-06T14:02:11;0.00;;;0.00;;
5787;SDS011;2920;48.158;12.254;2023-08-06T14:04:37;1.20;;;0.35;;
5787;SDS011;2920;48.158;12.254;2023-08-06T14:07:02;0.20;;;0.20;;
5787;SDS011;2920;48.158;12.254;2023-08-06T14:09:28;0.10;;;0.10;;
5787;SDS011;2920;48.158;12.254;2023-08-06T14:11:54;2.72;;;0.20;;
5787;SDS011;2920;48.158;12.254;2023-08-06T14:14:19;0.15;;;0.10;;
5787;SDS011;2920;48.158;12.254;2023-08-06T14:16:50;0.10;;;0.10;;
5787;SDS011;2920;48.158;12.254;2023-08-06T14:19:15;0.10;;;0.10;;
5787;SDS011;2920;48.158;12.254;2023-08-06T14:21:41;0.10;;;0.10;;
5787;SDS011;2920;48.158;12.254;2023-08-06T14:24:06;0.00;;;0.00;;
5787;SDS011;2920;48.158;12.254;2023-08-06T14:26:31;0.73;;;0.15;;
5787;SDS011;2920;48.158;12.254;2023-08-06T14:28:57;0.82;;;0.30;;
5787;SDS011;2920;48.158;12.254;2023-08-06T14:31:22;0.17;;;0.17;;
5787;SDS011;2920;48.158;12.254;2023-08-06T14:33:47;0.03;;;0.03;;
5787;SDS011;2920;48.158;12.254;2023-08-06T14:36:13;0.45;;;0.30;;
5787;SDS011;2920;48.158;12.254;2023-08-06T14:38:38;0.38;;;0.10;;
5787;SDS011;2920;48.158;12.254;2023-08-06T14:41:04;0.10;;;0.10;;
5787;SDS011;2920;48.158;12.254;2023-08-06T14:43:29;1.85;;;0.30;;
5787;SDS011;2920;48.158;12.254;2023-08-06T14:45:54;0.20;;;0.20;;
5787;SDS011;2920;48.158;12.254;2023-08-06T14:48:20;1.73;;;0.28;;
5787;SDS011;2920;48.158;12.254;2023-08-06T14:50:45;0.20;;;0.20;;
5787;SDS011;2920;48.158;12.254;2023-08-06T14:53:10;0.10;;;0.10;;
5787;SDS011;2920;48.158;12.254;2023-08-06T14:55:37;0.10;;;0.10;;
5787;SDS011;2920;48.158;12.254;2023-08-06T14:58:02;0.17;;;0.17;;
5787;SDS011;2920;48.158;12.254;2023-08-06T15:00:27;2.35;;;0.45;;
5787;SDS011;2920;48.158;12.254;2023-08-06T15:02:53;0.55;;;0.32;;
5787;SDS011;2920;48.158;12.254;2023-08-06T15:05:18;0.10;;;0.10;;
5787;SDS011;2920;48.158;12.254;2023-08-06T15:07:43;0.13;;;0.13;;
5787;SDS011;2920;48.158;12.254;2023-08-06T15:10:09;0.38;;;0.30;;
5787;SDS011;2920;48.158;12.254;2023-08-06T15:12:34;0.25;;;0.25;;